Time;durP1;ratioP1;P1;durP2;ratioP2;P2;SDS_P1;SDS_P2;PMS_P1;PMS_P2;Temp;Humidity;BMP_temperature;BMP_pressure;BME280_temperature;BME280_humidity;BME280_pressure;Samples;Min_cycle;Max_cycle;Signal;HPM_P1;HPM_P2
2022/08/15 00:00:01;;;;;;;6.07;5.63;;;;;;;24.00;60.35;100405.03;5045402;28;20336;-77
2022/08/15 00:02:27;;;;;;;6.03;5.63;;;;;;;24.00;60.86;100393.50;5046730;28;20064;-77
2022/08/15 00:04:52;;;;;;;6.82;5.97;;;;;;;24.00;61.38;100393.50;5043771;28;20029;-76
2022/08/15 00:07:18;;;;;;;6.78;6.18;;;;;;;23.98;60.98;100384.78;5059186;28;20233;-77
2022/08/15 00:09:43;;;;;;;6.75;6.35;;;;;;;23.96;61.09;100382.28;5044135;28;20033;-77
2022/08/15 00:12:09;;;;;;;7.30;6.72;;;;;;;23.93;62.05;100377.25;5056532;28;20033;-77
2022/08/15 00:14:36;;;;;;;7.70;6.20;;;;;;;23.90;62.15;100399.81;5067115;28;20096;-77
2022/08/15 00:17:09;;;;;;;6.75;6.25;;;;;;;23.88;61.63;100387.59;5051469;28;20067;-77
2022/08/15 00:19:38;;;;;;;6.43;6.03;;;;;;;23.87;61.77;100391.28;5068093;28;20024;-76
2022/08/15 00:22:06;;;;;;;6.43;5.95;;;;;;;23.86;62.03;100387.72;5061547;28;20037;-77
2022/08/15 00:24:34;;;;;;;7.43;6.55;;;;;;;23.84;61.74;100384.38;5057724;28;20044;-77
2022/08/15 00:27:04;;;;;;;7.20;6.60;;;;;;;23.84;62.13;100383.56;5062601;28;20246;-77
2022/08/15 00:29:31;;;;;;;7.10;6.70;;;;;;;23.81;62.15;100362.47;5066375;28;20228;-77
2022/08/15 00:31:58;;;;;;;7.05;6.45;;;;;;;23.79;62.07;100359.94;5064305;28;20340;-77
2022/08/15 00:34:24;;;;;;;6.47;6.03;;;;;;;23.76;62.57;100358.44;5057505;28;20060;-77
2022/08/15 00:36:50;;;;;;;6.57;6.10;;;;;;;23.74;62.27;100360.44;5048858;28;20123;-77
2022/08/15 00:39:22;;;;;;;6.50;5.88;;;;;;;23.74;62.10;100362.28;5038957;28;20212;-77
2022/08/15 00:41:50;;;;;;;6.57;6.10;;;;;;;23.71;62.09;100359.91;5035342;28;20504;-77
2022/08/15 00:44:29;;;;;;;;;;;;;;;23.69;62.25;100365.41;5042373;28;20120;-77
2022/08/15 00:47:01;;;;;;;6.80;6.22;;;;;;;23.69;61.87;100365.41;5052805;28;19939;-77
2022/08/15 00:49:30;;;;;;;6.97;6.28;;;;;;;23.66;62.00;100357.69;5058148;28;20058;-77
2022/08/15 00:52:05;;;;;;;6.82;6.32;;;;;;;23.62;62.56;100367.03;5062998;28;20545;-77
2022/08/15 00:54:37;;;;;;;7.22;6.60;;;;;;;23.60;62.59;100360.19;5066462;28;20079;-77
2022/08/15 00:57:10;;;;;;;6.55;6.03;;;;;;;23.57;62.73;100351.47;5048936;28;20044;-77
2022/08/15 00:59:42;;;;;;;7.18;6.68;;;;;;;23.55;62.83;100356.13;5052305;28;20207;-77
2022/08/15 01:02:15;;;;;;;6.93;6.43;;;;;;;23.54;62.70;100365.16;5063992;28;20225;-77
2022/08/15 01:04:41;;;;;;;7.07;6.57;;;;;;;23.51;62.62;100357.44;5055394;28;20056;-77
2022/08/15 01:07:08;;;;;;;7.45;6.50;;;;;;;23.50;62.61;100366.47;5071137;28;20213;-77
2022/08/15 01:09:35;;;;;;;6.95;6.35;;;;;;;23.49;62.93;100361.28;5055793;28;20287;-77
2022/08/15 01:12:15;;;;;;;6.90;6.30;;;;;;;23.48;62.69;100359.59;5021553;28;20036;-77
2022/08/15 01:14:47;;;;;;;7.25;6.68;;;;;;;23.47;61.85;100363.28;5058535;28;20077;-77
2022/08/15 01:17:14;;;;;;;7.53;6.93;;;;;;;23.46;61.65;100357.09;5044904;28;20039;-77
2022/08/15 01:19:53;;;;;;;7.25;6.35;;;;;;;23.46;60.84;100357.09;5055634;28;20025;-76
2022/08/15 01:22:47;;;;;;;6.90;6.47;;;;;;;23.47;60.51;100355.28;5069393;28;20021;-77
2022/08/15 01:25:27;;;;;;;6.68;6.20;;;;;;;23.49;60.29;100347.94;5065655;28;20131;-77
2022/08/15 01:28:01;;;;;;;7.47;6.70;;;;;;;23.48;60.07;100352.41;5057440;28;20063;-76
2022/08/15 01:30:38;;;;;;;6.32;5.93;;;;;;;23.49;60.18;100353.28;5067761;28;20044;-76
2022/08/15 01:33:03;;;;;;;6.78;6.20;;;;;;;23.48;59.60;100347.06;5057953;28;20012;-76
2022/08/15 01:35:29;;;;;;;6.57;6.18;;;;;;;23.48;59.44;100347.06;5075789;28;20122;-76
2022/08/15 01:37:56;;;;;;;6.20;5.70;;;;;;;23.49;59.80;100346.09;5027173;28;20029;-76
2022/08/15 01:41:01;;;;;;;7.13;6.55;;;;;;;23.50;59.63;100354.94;5073464;28;20037;-77
2022/08/15 01:43:30;;;;;;;7.00;6.35;;;;;;;23.49;59.73;100354.09;5032553;28;20370;-76
2022/08/15 01:46:02;;;;;;;6.00;5.60;;;;;;;23.49;59.75;100343.41;5075553;28;20021;-76
2022/08/15 01:48:40;;;;;;;7.40;6.40;;;;;;;23.49;59.57;100345.25;5049042;28;20043;-76
2022/08/15 01:51:07;;;;;;;6.60;6.10;;;;;;;23.48;59.24;100338.22;5061357;28;20016;-76
2022/08/15 01:53:59;;;;;;;7.25;6.43;;;;;;;23.48;59.54;100338.22;5072005;28;20029;-76
2022/08/15 01:56:38;;;;;;;7.53;6.85;;;;;;;23.48;60.05;100346.25;5069080;28;20289;-76
2022/08/15 01:59:06;;;;;;;6.10;5.70;;;;;;;23.47;60.15;100340.06;5077591;28;20432;-76
2022/08/15 02:01:44;;;;;;;6.22;5.82;;;;;;;23.46;59.90;100342.91;5076475;28;20032;-76
2022/08/15 02:04:12;;;;;;;6.70;6.10;;;;;;;23.45;59.94;100341.22;5070636;28;20320;-76
2022/08/15 02:06:39;;;;;;;5.95;5.43;;;;;;;23.44;60.38;100337.69;5055625;28;20398;-76
2022/08/15 02:09:11;;;;;;;5.90;5.47;;;;;;;23.43;60.10;100348.53;5077039;28;20040;-76
2022/08/15 02:11:37;;;;;;;5.63;5.25;;;;;;;23.42;59.93;100353.06;5052709;28;20327;-76
2022/08/15 02:14:03;;;;;;;5.47;5.07;;;;;;;23.40;59.67;100355.06;5064068;28;20071;-76
2022/08/15 02:16:35;;;;;;;5.15;4.85;;;;;;;23.40;59.73;100360.41;5049086;28;20032;-76
2022/08/15 02:19:02;;;;;;;5.03;4.72;;;;;;;23.39;59.61;100361.38;5048056;28;20135;-76
2022/08/15 02:21:31;;;;;;;4.35;3.95;;;;;;;23.38;59.32;100341.03;5076199;28;20040;-76
2022/08/15 02:23:57;;;;;;;4.13;3.78;;;;;;;23.36;59.22;100333.16;5075761;28;20134;-76
2022/08/15 02:26:22;;;;;;;6.35;3.50;;;;;;;23.36;59.26;100324.31;5077822;28;20038;-76
2022/08/15 02:28:48;;;;;;;3.50;3.30;;;;;;;23.35;59.16;100319.94;5070080;28;20055;-75
2022/08/15 02:31:18;;;;;;;3.65;3.35;;;;;;;23.35;58.97;100319.94;5051234;28;20052;-75
2022/08/15 02:33:50;;;;;;;3.35;3.10;;;;;;;23.34;58.59;100318.28;5070933;28;20320;-75
2022/08/15 02:36:17;;;;;;;3.72;3.40;;;;;;;23.34;58.74;100310.28;5059000;28;20335;-75
2022/08/15 02:38:45;;;;;;;3.38;3.10;;;;;;;23.34;58.92;100318.28;5058861;28;20264;-75
2022/08/15 02:41:13;;;;;;;3.30;3.10;;;;;;;23.33;58.71;100327.28;5072340;28;20041;-75
2022/08/15 02:43:43;;;;;;;;;;;;;;;23.33;58.85;100328.13;5058823;28;20059;-75
2022/08/15 02:46:09;;;;;;;3.72;2.95;;;;;;;23.30;58.89;100328.47;5060338;28;19913;-75
2022/08/15 02:48:36;;;;;;;3.22;3.03;;;;;;;23.29;58.82;100325.94;5064268;28;20064;-75
2022/08/15 02:51:02;;;;;;;3.58;3.28;;;;;;;23.28;58.77;100321.56;5058585;28;20047;-75
2022/08/15 02:53:28;;;;;;;5.28;3.03;;;;;;;23.27;59.04;100310.06;5040259;28;20041;-75
2022/08/15 02:55:53;;;;;;;3.25;3.05;;;;;;;23.26;59.03;100310.22;5059299;28;20088;-75
2022/08/15 02:58:20;;;;;;;3.00;2.80;;;;;;;23.26;58.63;100318.22;5071770;28;20136;-75
2022/08/15 03:00:46;;;;;;;3.83;3.42;;;;;;;23.23;59.19;100316.72;5072417;28;20096;-75
2022/08/15 03:03:14;;;;;;;3.40;3.10;;;;;;;23.22;59.19;100311.53;5058299;28;20051;-75
2022/08/15 03:05:44;;;;;;;3.30;3.00;;;;;;;23.21;59.09;100317.84;5064662;28;20074;-75
2022/08/15 03:08:09;;;;;;;4.15;2.83;;;;;;;23.18;59.39;100327.88;5067549;28;20247;-75
2022/08/15 03:10:37;;;;;;;2.80;2.60;;;;;;;23.17;58.67;100320.00;5060587;28;20385;-75
2022/08/15 03:13:10;;;;;;;2.97;2.78;;;;;;;23.17;59.01;100306.66;5061928;28;20250;-76
2022/08/15 03:15:52;;;;;;;2.70;2.50;;;;;;;23.16;59.09;100315.69;5060159;28;20089;-75
2022/08/15 03:18:19;;;;;;;2.70;2.50;;;;;;;23.15;59.09;100317.47;5053882;28;20037;-75
2022/08/15 03:20:46;;;;;;;3.20;2.90;;;;;;;23.14;59.02;100313.16;5052552;28;20106;-75
2022/08/15 03:23:12;;;;;;;3.03;2.80;;;;;;;23.14;59.02;100309.63;5051547;28;20214;-75
2022/08/15 03:25:44;;;;;;;3.40;3.20;;;;;;;23.13;59.54;100308.78;5059823;28;20040;-75
2022/08/15 03:28:10;;;;;;;4.57;3.92;;;;;;;23.11;60.36;100302.78;5060408;28;20024;-75
2022/08/15 03:30:37;;;;;;;4.88;3.83;;;;;;;23.09;60.85;100303.94;5062618;28;20193;-75
2022/08/15 03:33:03;;;;;;;4.57;3.63;;;;;;;23.06;61.48;100294.41;5048824;28;20019;-75
2022/08/15 03:35:31;;;;;;;3.80;3.55;;;;;;;23.05;61.75;100294.53;5040113;28;20029;-75
2022/08/15 03:37:58;;;;;;;6.68;3.80;;;;;;;23.02;61.77;100297.53;5067853;28;20363;-75
2022/08/15 03:40:24;;;;;;;4.32;3.92;;;;;;;23.01;62.49;100302.00;5075553;28;20044;-75
2022/08/15 03:42:56;;;;;;;5.50;4.07;;;;;;;22.98;62.95;100310.34;5058183;28;20044;-75
2022/08/15 03:45:23;;;;;;;3.90;3.60;;;;;;;22.97;63.38;100312.16;5056490;28;20036;-75
2022/08/15 03:47:48;;;;;;;4.82;4.15;;;;;;;22.94;63.51;100311.63;5059615;28;20094;-75
2022/08/15 03:50:14;;;;;;;4.93;4.07;;;;;;;22.91;63.99;100314.63;5056207;28;20044;-75
2022/08/15 03:52:52;;;;;;;4.35;3.97;;;;;;;22.89;64.18;100314.78;5059080;28;20040;-75
2022/08/15 03:55:19;;;;;;;4.80;4.33;;;;;;;22.88;64.45;100328.28;5052196;28;20025;-75
2022/08/15 03:57:45;;;;;;;4.93;4.53;;;;;;;22.86;64.86;100336.44;5042880;28;20036;-75
2022/08/15 04:00:13;;;;;;;5.90;4.20;;;;;;;22.85;64.75;100339.25;5065890;28;20052;-75
2022/08/15 04:02:38;;;;;;;4.47;4.10;;;;;;;22.83;65.00;100330.56;5062949;28;20033;-75
2022/08/15 04:05:04;;;;;;;5.95;4.68;;;;;;;22.81;65.20;100325.38;5038868;28;20340;-75
2022/08/15 04:07:32;;;;;;;4.78;4.38;;;;;;;22.79;65.69;100333.56;5061495;28;20043;-75
2022/08/15 04:09:58;;;;;;;4.25;3.92;;;;;;;22.78;65.05;100345.22;5057848;28;20032;-75
2022/08/15 04:12:35;;;;;;;4.57;4.28;;;;;;;22.77;65.28;100330.19;5063948;28;20044;-76
2022/08/15 04:15:04;;;;;;;4.43;4.05;;;;;;;22.76;64.51;100325.03;5061603;28;20043;-75
2022/08/15 04:17:30;;;;;;;5.88;4.10;;;;;;;22.76;64.14;100325.03;5052177;28;20396;-75
2022/08/15 04:19:55;;;;;;;4.32;3.92;;;;;;;22.75;64.35;100326.00;5060911;28;20166;-75
2022/08/15 04:22:31;;;;;;;4.35;4.05;;;;;;;22.75;63.74;100332.16;5038080;28;20049;-75
2022/08/15 04:25:02;;;;;;;4.70;4.30;;;;;;;22.75;64.09;100328.69;5073383;28;20036;-75
2022/08/15 04:27:27;;;;;;;4.30;3.90;;;;;;;22.74;64.78;100341.19;5072471;28;20025;-75
2022/08/15 04:29:52;;;;;;;7.25;4.43;;;;;;;22.74;64.90;100341.19;5064860;28;20036;-75
2022/08/15 04:32:20;;;;;;;4.90;4.40;;;;;;;22.73;64.49;100347.50;5046753;28;20048;-75
2022/08/15 04:34:46;;;;;;;4.05;3.75;;;;;;;22.71;63.38;100346.81;5070978;28;20366;-75
2022/08/15 04:37:12;;;;;;;3.95;3.25;;;;;;;22.72;63.31;100345.84;5070631;28;20037;-75
2022/08/15 04:39:38;;;;;;;6.15;3.10;;;;;;;22.71;62.82;100349.50;5056668;28;20033;-75
2022/08/15 04:42:03;;;;;;;4.45;2.80;;;;;;;22.71;62.43;100343.31;5026143;28;20393;-75
2022/08/15 04:44:29;;;;;;;2.78;2.58;;;;;;;22.71;62.25;100336.16;5056153;28;20199;-75
2022/08/15 04:46:54;;;;;;;2.95;2.60;;;;;;;22.69;61.65;100335.47;5065647;28;20111;-75
2022/08/15 04:49:20;;;;;;;2.28;2.08;;;;;;;22.67;61.16;100337.47;5051598;28;20072;-75
2022/08/15 04:51:45;;;;;;;3.35;2.30;;;;;;;22.67;61.02;100326.78;5066659;28;20121;-75
2022/08/15 04:54:11;;;;;;;3.45;2.10;;;;;;;22.66;60.93;100322.41;5018554;28;20316;-75
2022/08/15 04:56:36;;;;;;;2.22;2.03;;;;;;;22.66;60.69;100309.06;5052643;28;20254;-75
2022/08/15 04:59:02;;;;;;;2.55;2.35;;;;;;;22.65;60.48;100311.91;5056640;28;20095;-75
2022/08/15 05:01:27;;;;;;;3.75;1.90;;;;;;;22.65;60.40;100314.56;5036581;28;20044;-75
2022/08/15 05:03:53;;;;;;;2.45;2.25;;;;;;;22.65;60.67;100317.22;5056822;28;20360;-75
2022/08/15 05:06:18;;;;;;;2.30;2.10;;;;;;;22.62;60.27;100319.22;5061724;28;20243;-75
2022/08/15 05:08:44;;;;;;;2.05;1.85;;;;;;;22.62;60.48;100316.56;5058581;28;20096;-75
2022/08/15 05:11:13;;;;;;;2.90;2.13;;;;;;;22.61;60.41;100328.22;5057614;28;20045;-75
2022/08/15 05:13:40;;;;;;;5.35;2.30;;;;;;;22.59;59.82;100322.22;5059983;28;20033;-75
2022/08/15 05:16:07;;;;;;;5.38;2.17;;;;;;;22.59;59.99;100326.69;5028349;28;20228;-75
2022/08/15 05:18:38;;;;;;;2.95;2.28;;;;;;;22.58;59.78;100330.38;5055735;28;20047;-75
2022/08/15 05:21:04;;;;;;;3.45;2.53;;;;;;;22.57;59.98;100337.50;5059066;28;20351;-77
2022/08/15 05:23:31;;;;;;;5.82;2.08;;;;;;;22.57;60.03;100331.34;5061528;28;20040;-75
2022/08/15 05:25:59;;;;;;;4.60;2.25;;;;;;;22.55;59.88;100326.16;5053823;28;20075;-75
2022/08/15 05:28:26;;;;;;;7.30;2.77;;;;;;;22.54;59.83;100336.97;5065881;28;20131;-75
2022/08/15 05:30:54;;;;;;;5.90;2.40;;;;;;;22.54;60.13;100344.97;5008796;28;1171998;-75
2022/08/15 05:33:28;;;;;;;5.50;2.63;;;;;;;22.53;60.17;100343.31;5055513;28;20052;-75
2022/08/15 05:35:57;;;;;;;3.75;2.50;;;;;;;22.52;60.30;100349.63;5051062;28;20352;-75
2022/08/15 05:38:46;;;;;;;4.30;2.53;;;;;;;22.50;59.98;100351.63;5053953;28;20029;-75
2022/08/15 05:41:25;;;;;;;4.47;2.95;;;;;;;22.48;59.92;100341.09;5051156;28;20049;-75
2022/08/15 05:44:05;;;;;;;7.60;2.72;;;;;;;22.47;59.60;100350.09;5053151;28;20032;-75
2022/08/15 05:46:53;;;;;;;7.32;2.40;;;;;;;22.47;59.59;100355.44;5054820;28;20111;-75
2022/08/15 05:49:42;;;;;;;9.82;2.45;;;;;;;22.45;59.56;100349.44;5057948;28;20340;-75
2022/08/15 05:52:23;;;;;;;3.88;2.50;;;;;;;22.44;59.60;100345.06;5055255;28;20394;-75
2022/08/15 05:55:15;;;;;;;4.53;2.80;;;;;;;22.43;59.90;100346.91;5054904;28;20116;-75
2022/08/15 05:57:57;;;;;;;2.85;2.40;;;;;;;22.41;59.59;100354.22;5044794;28;20060;-75
2022/08/15 06:00:25;;;;;;;6.32;2.45;;;;;;;22.41;59.64;100340.88;5052071;28;20044;-75
2022/08/15 06:03:06;;;;;;;6.80;2.50;;;;;;;22.42;59.49;100344.38;5051570;28;20223;-75
2022/08/15 06:05:41;;;;;;;2.95;2.65;;;;;;;22.40;59.96;100325.03;5052650;28;20290;-75
2022/08/15 06:08:14;;;;;;;2.35;2.17;;;;;;;22.39;59.58;100339.34;5059105;28;20210;-75
2022/08/15 06:10:47;;;;;;;4.78;2.63;;;;;;;22.38;59.47;100325.16;5053840;28;20033;-75
2022/08/15 06:13:19;;;;;;;2.92;2.38;;;;;;;22.37;59.26;100325.31;5049949;28;20036;-75
2022/08/15 06:16:02;;;;;;;4.65;2.20;;;;;;;22.37;59.27;100325.31;5063104;28;20286;-75
2022/08/15 06:18:33;;;;;;;4.30;2.30;;;;;;;22.37;59.64;100331.47;5043502;28;20047;-75
2022/08/15 06:21:15;;;;;;;3.03;2.60;;;;;;;22.37;59.60;100339.50;5058444;28;20021;-75
2022/08/15 06:23:55;;;;;;;3.28;2.40;;;;;;;22.37;59.44;100334.16;5043890;28;20305;-75
2022/08/15 06:26:54;;;;;;;5.63;2.45;;;;;;;22.38;59.58;100332.34;5064738;28;20035;-75
2022/08/15 06:29:41;;;;;;;3.60;2.03;;;;;;;22.39;59.52;100342.00;5067893;28;20036;-75
2022/08/15 06:32:36;;;;;;;2.53;2.33;;;;;;;22.39;59.60;100344.69;5063975;28;20044;-75
2022/08/15 06:35:15;;;;;;;5.78;2.92;;;;;;;22.38;59.46;100341.19;5058630;28;20048;-75
2022/08/15 06:37:55;;;;;;;2.92;2.13;;;;;;;22.38;59.58;100341.19;5045414;28;20059;-75
2022/08/15 06:40:23;;;;;;;8.57;2.85;;;;;;;22.37;59.96;100338.66;5064923;28;20378;-75
2022/08/15 06:42:49;;;;;;;4.63;2.55;;;;;;;22.36;59.76;100337.81;5055450;28;20091;-75
2022/08/15 06:45:22;;;;;;;6.45;2.78;;;;;;;22.36;59.94;100348.50;5056125;28;20032;-74
2022/08/15 06:47:51;;;;;;;5.40;2.83;;;;;;;22.37;60.03;100341.31;5064557;28;20077;-75
2022/08/15 06:50:31;;;;;;;3.08;2.38;;;;;;;22.36;59.86;100345.00;5061229;28;20055;-75
2022/08/15 06:53:17;;;;;;;2.85;2.15;;;;;;;22.37;59.57;100341.31;5056666;28;20036;-75
2022/08/15 06:55:52;;;;;;;2.28;2.08;;;;;;;22.35;59.39;100346.81;5061855;28;20043;-75
2022/08/15 06:58:29;;;;;;;2.58;2.30;;;;;;;22.36;59.50;100353.00;5063557;28;20099;-74
2022/08/15 07:01:09;;;;;;;6.78;2.58;;;;;;;22.35;59.28;100362.81;5070896;28;20044;-75
2022/08/15 07:03:40;;;;;;;3.17;2.67;;;;;;;22.36;60.09;100350.34;5062517;28;20025;-75
2022/08/15 07:06:10;;;;;;;4.93;2.60;;;;;;;22.35;59.75;100362.81;5060530;28;20036;-75
2022/08/15 07:08:41;;;;;;;3.22;2.50;;;;;;;22.34;60.23;100360.28;5054013;28;20291;-75
2022/08/15 07:11:12;;;;;;;4.18;2.47;;;;;;;22.33;60.36;100375.47;5065845;28;20042;-75
2022/08/15 07:14:11;;;;;;;3.85;2.67;;;;;;;22.33;59.88;100372.78;5056542;28;20370;-75
2022/08/15 07:16:48;;;;;;;6.72;3.13;;;;;;;22.33;60.27;100371.97;5058679;28;20041;-75
2022/08/15 07:19:14;;;;;;;4.03;2.65;;;;;;;22.33;60.67;100369.28;5050468;28;20037;-75
2022/08/15 07:21:40;;;;;;;2.45;2.22;;;;;;;22.33;60.39;100361.28;5053284;28;20452;-75
2022/08/15 07:24:08;;;;;;;6.95;3.03;;;;;;;22.33;60.57;100370.13;5061504;28;20028;-75
2022/08/15 07:26:46;;;;;;;3.88;3.13;;;;;;;22.33;61.39;100358.63;5055227;28;20039;-75
2022/08/15 07:29:48;;;;;;;2.80;2.10;;;;;;;22.33;60.52;100354.13;5059402;28;20404;-75
2022/08/15 07:32:29;;;;;;;3.08;2.78;;;;;;;22.34;60.56;100355.81;5037271;28;20108;-75
2022/08/15 07:35:05;;;;;;;2.50;2.40;;;;;;;22.33;60.46;100350.63;5063639;28;20037;-75
2022/08/15 07:37:34;;;;;;;3.00;2.80;;;;;;;22.33;61.37;100343.47;5061546;28;20289;-75
2022/08/15 07:40:12;;;;;;;3.15;2.72;;;;;;;22.33;60.93;100331.97;5059979;28;20044;-75
2022/08/15 07:42:41;;;;;;;;;;;;;;;22.33;61.14;100346.13;5056760;28;20036;-75
2022/08/15 07:45:14;;;;;;;4.10;2.30;;;;;;;22.32;61.28;100339.13;5058418;28;19916;-75
2022/08/15 07:47:54;;;;;;;3.60;3.08;;;;;;;22.32;61.84;100344.47;5066018;28;20029;-75
2022/08/15 07:50:41;;;;;;;3.15;2.85;;;;;;;22.33;61.97;100348.78;5062526;28;20035;-76
2022/08/15 07:53:16;;;;;;;3.10;2.80;;;;;;;22.33;61.48;100340.78;5045230;28;20032;-75
2022/08/15 07:56:04;;;;;;;3.17;2.63;;;;;;;22.32;62.18;100320.47;5060106;28;20036;-75
2022/08/15 07:58:31;;;;;;;3.05;2.85;;;;;;;22.32;61.88;100317.78;5054587;28;20092;-75
2022/08/15 08:01:11;;;;;;;4.65;3.00;;;;;;;22.32;62.40;100328.47;5056992;28;20059;-75
2022/08/15 08:03:39;;;;;;;3.10;2.80;;;;;;;22.32;61.31;100327.59;5064140;28;20362;-75
2022/08/15 08:06:11;;;;;;;4.55;2.95;;;;;;;22.33;61.75;100331.97;5062220;28;20342;-75
2022/08/15 08:09:14;;;;;;;3.60;3.30;;;;;;;22.33;62.32;100339.97;5066421;28;20093;-75
2022/08/15 08:11:54;;;;;;;3.28;2.97;;;;;;;22.35;62.44;100332.63;5061439;28;20040;-76
2022/08/15 08:14:47;;;;;;;3.90;3.50;;;;;;;22.34;62.85;100337.16;5048346;28;20129;-75
2022/08/15 08:17:18;;;;;;;4.47;4.07;;;;;;;22.35;63.08;100344.13;5061472;28;20063;-76
2022/08/15 08:20:11;;;;;;;4.30;4.00;;;;;;;22.36;63.39;100350.34;5060509;28;20039;-76
2022/08/15 08:22:50;;;;;;;4.30;3.97;;;;;;;22.36;62.58;100351.16;5048292;28;20028;-75
2022/08/15 08:25:44;;;;;;;8.52;3.65;;;;;;;22.36;62.59;100347.66;5055954;28;20041;-75
2022/08/15 08:28:18;;;;;;;4.80;4.10;;;;;;;22.36;62.75;100351.16;5059133;28;21185;-75
2022/08/15 08:31:34;;;;;;;9.07;4.85;;;;;;;22.38;63.32;100361.69;5067623;28;20060;-75
2022/08/15 08:34:31;;;;;;;4.93;4.53;;;;;;;22.38;63.56;100365.19;5029357;28;20045;-75
2022/08/15 08:37:11;;;;;;;4.82;4.22;;;;;;;22.39;63.27;100366.88;5053131;28;20037;-75
2022/08/15 08:39:52;;;;;;;4.50;4.20;;;;;;;22.40;63.78;100373.03;5060675;28;20083;-75
2022/08/15 08:42:33;;;;;;;5.38;4.60;;;;;;;22.40;63.60;100373.88;5061874;28;20039;-75
2022/08/15 08:45:28;;;;;;;5.70;4.93;;;;;;;22.41;64.32;100377.38;5061399;28;20024;-75
2022/08/15 08:48:23;;;;;;;7.72;3.97;;;;;;;22.40;63.74;100379.22;5065502;28;20041;-75
2022/08/15 08:51:04;;;;;;;4.65;4.25;;;;;;;22.41;63.60;100380.91;5063588;28;20087;-75
2022/08/15 08:53:52;;;;;;;5.47;4.53;;;;;;;22.40;63.38;100384.53;5044999;28;20340;-75
2022/08/15 08:56:23;;;;;;;4.88;4.47;;;;;;;22.42;63.63;100387.06;5060334;28;20037;-75
2022/08/15 08:58:53;;;;;;;7.68;4.68;;;;;;;22.42;63.81;100382.56;5035872;28;20390;-75
2022/08/15 09:01:25;;;;;;;6.28;5.15;;;;;;;22.43;63.02;100378.91;5055160;28;20060;-75
2022/08/15 09:03:57;;;;;;;13.70;5.72;;;;;;;22.45;64.39;100384.09;5037365;28;20402;-75
2022/08/15 09:06:29;;;;;;;14.30;6.13;;;;;;;22.47;65.82;100378.63;5058968;28;20025;-75
2022/08/15 09:09:10;;;;;;;7.18;4.90;;;;;;;22.48;64.65;100383.78;5055796;28;20043;-75
2022/08/15 09:11:47;;;;;;;6.00;5.13;;;;;;;22.48;63.40;100375.78;5054031;28;20101;-75
2022/08/15 09:14:34;;;;;;;5.72;5.22;;;;;;;22.51;62.95;100374.66;5061372;28;20040;-76
2022/08/15 09:17:08;;;;;;;7.72;5.93;;;;;;;22.53;64.00;100381.50;5054966;28;20029;-76
2022/08/15 09:19:46;;;;;;;6.15;5.65;;;;;;;22.56;64.16;100383.06;5042309;28;20143;-75
2022/08/15 09:22:12;;;;;;;7.47;6.88;;;;;;;22.56;64.23;100391.06;5069649;28;20221;-75
2022/08/15 09:24:38;;;;;;;7.97;6.50;;;;;;;22.56;63.26;100383.06;5055608;28;20043;-75
2022/08/15 09:27:29;;;;;;;9.35;6.93;;;;;;;22.57;62.78;100387.38;5062154;28;20024;-75
2022/08/15 09:30:07;;;;;;;7.82;7.10;;;;;;;22.58;63.47;100389.91;5055172;28;20036;-76
2022/08/15 09:32:41;;;;;;;8.98;6.93;;;;;;;22.59;63.54;100382.72;5055244;28;20053;-76
2022/08/15 09:35:23;;;;;;;7.38;6.68;;;;;;;22.62;63.50;100398.44;5060628;28;20119;-75
2022/08/15 09:38:07;;;;;;;9.43;6.35;;;;;;;22.63;63.93;100394.81;5065483;28;20031;-76
2022/08/15 09:40:49;;;;;;;8.52;7.13;;;;;;;22.65;64.36;100397.28;5064715;28;20035;-75
2022/08/15 09:43:38;;;;;;;10.80;6.88;;;;;;;22.67;64.04;100398.84;5049551;28;20039;-76
2022/08/15 09:46:09;;;;;;;7.30;6.43;;;;;;;22.69;63.81;100388.00;5057689;28;20028;-75
2022/08/15 09:48:42;;;;;;;9.48;7.75;;;;;;;22.71;64.17;100396.72;5047398;28;20032;-75
2022/08/15 09:51:34;;;;;;;8.68;7.80;;;;;;;22.71;64.03;100394.88;5065517;28;20060;-75
2022/08/15 09:54:11;;;;;;;13.55;8.05;;;;;;;22.74;64.05;100396.38;5057156;28;20039;-75
2022/08/15 09:56:37;;;;;;;10.68;7.63;;;;;;;22.74;64.35;100399.06;5063053;28;20040;-75
2022/08/15 09:59:18;;;;;;;7.63;6.85;;;;;;;22.75;63.82;100396.22;5059296;28;20106;-75
2022/08/15 10:01:59;;;;;;;9.80;7.38;;;;;;;22.78;63.84;100406.63;5061273;28;20102;-75
2022/08/15 10:05:09;;;;;;;7.72;7.00;;;;;;;22.79;63.59;100413.66;5058390;28;20245;-75
2022/08/15 10:07:48;;;;;;;6.95;6.40;;;;;;;22.80;63.32;100398.47;5052428;28;20107;-75
2022/08/15 10:10:13;;;;;;;9.93;8.10;;;;;;;22.83;63.02;100402.63;5052465;28;20056;-75
2022/08/15 10:13:05;;;;;;;9.97;7.23;;;;;;;22.84;63.25;100407.00;5052792;28;20358;-75
2022/08/15 10:15:40;;;;;;;7.85;7.20;;;;;;;22.85;63.04;100408.66;5062326;28;20462;-75
2022/08/15 10:18:08;;;;;;;8.07;7.30;;;;;;;22.86;63.09;100397.00;5059637;28;20024;-75
2022/08/15 10:20:33;;;;;;;10.50;7.18;;;;;;;22.88;63.45;100408.38;5053251;28;20056;-75
2022/08/15 10:22:59;;;;;;;9.40;7.87;;;;;;;22.89;64.06;100402.88;5061129;28;20136;-75
2022/08/15 10:25:35;;;;;;;15.20;7.55;;;;;;;22.92;63.88;100399.06;5062573;28;20295;-75
2022/08/15 10:28:14;;;;;;;9.05;7.20;;;;;;;22.96;63.45;100400.44;5061239;28;20332;-75
2022/08/15 10:31:02;;;;;;;9.40;6.70;;;;;;;22.98;62.93;100415.31;5058656;28;20152;-75
2022/08/15 10:33:33;;;;;;;11.00;7.55;;;;;;;23.01;63.55;100414.16;5061613;28;20029;-75
2022/08/15 10:36:13;;;;;;;6.38;5.47;;;;;;;23.02;62.99;100415.84;5047061;28;20376;-75
2022/08/15 10:39:19;;;;;;;8.40;7.38;;;;;;;23.04;63.22;100413.88;5040504;28;20036;-75
2022/08/15 10:41:57;;;;;;;7.63;5.78;;;;;;;23.06;62.65;100411.91;5058971;28;20043;-75
2022/08/15 10:45:00;;;;;;;7.75;5.70;;;;;;;23.08;62.11;100409.06;5056328;28;20107;-75
2022/08/15 10:47:28;;;;;;;8.18;6.10;;;;;;;23.10;62.70;100405.28;5063163;28;20043;-75
2022/08/15 10:50:00;;;;;;;9.30;5.80;;;;;;;23.13;62.95;100402.28;5064338;28;20339;-75
2022/08/15 10:52:32;;;;;;;10.07;6.05;;;;;;;23.16;62.63;100395.81;5064065;28;20334;-75
2022/08/15 10:55:19;;;;;;;10.30;7.20;;;;;;;23.18;63.47;100391.97;5062615;28;20100;-75
2022/08/15 10:57:51;;;;;;;8.77;7.05;;;;;;;23.21;63.61;100400.66;5066359;28;20040;-75
2022/08/15 11:00:43;;;;;;;9.63;7.13;;;;;;;23.23;63.36;100393.31;5063576;28;20033;-75
2022/08/15 11:03:26;;;;;;;8.50;7.10;;;;;;;23.24;63.41;100403.03;5065427;28;20037;-76
2022/08/15 11:05:57;;;;;;;8.98;6.95;;;;;;;23.25;63.58;100399.34;5064377;28;20316;-75
2022/08/15 11:08:23;;;;;;;8.57;6.53;;;;;;;23.24;63.25;100395.84;5063314;28;20119;-75
2022/08/15 11:10:49;;;;;;;6.93;6.10;;;;;;;23.26;62.99;100406.38;5061024;28;20047;-75
2022/08/15 11:13:20;;;;;;;7.10;6.35;;;;;;;23.26;62.93;100401.03;5066608;28;20067;-75
2022/08/15 11:15:56;;;;;;;7.65;6.82;;;;;;;23.26;63.24;100401.88;5063792;28;20059;-75
2022/08/15 11:18:45;;;;;;;10.27;6.47;;;;;;;23.28;63.22;100410.56;5063404;28;20399;-75
2022/08/15 11:21:16;;;;;;;;;;;;;;;23.29;63.41;100411.44;5065474;28;20037;-75
2022/08/15 11:23:42;;;;;;;8.57;6.60;;;;;;;23.30;64.91;100413.94;5068364;28;20262;-75
2022/08/15 11:26:11;;;;;;;6.18;5.68;;;;;;;23.32;63.32;100421.78;5063046;28;20096;-75
2022/08/15 11:28:41;;;;;;;9.80;7.10;;;;;;;23.33;63.17;100418.13;5041827;28;20054;-75
2022/08/15 11:31:16;;;;;;;7.25;5.68;;;;;;;23.34;62.73;100417.97;5037663;28;20045;-75
2022/08/15 11:33:44;;;;;;;7.05;6.18;;;;;;;23.34;62.93;100420.66;5020993;28;20254;-75
2022/08/15 11:36:27;;;;;;;7.05;6.55;;;;;;;23.35;62.88;100416.97;5037511;28;20142;-75
2022/08/15 11:38:56;;;;;;;11.85;6.95;;;;;;;23.37;62.81;100419.47;5041360;28;20336;-74
2022/08/15 11:41:27;;;;;;;15.85;7.75;;;;;;;23.37;63.03;100430.16;5036583;28;20241;-75
2022/08/15 11:43:57;;;;;;;7.70;6.43;;;;;;;23.35;63.17;100424.16;5041434;28;20037;-75
2022/08/15 11:46:23;;;;;;;9.68;6.75;;;;;;;23.37;62.75;100422.16;5036213;28;20029;-75
2022/08/15 11:48:54;;;;;;;8.65;6.55;;;;;;;23.36;63.25;100429.34;5041515;28;20056;-75
2022/08/15 11:51:33;;;;;;;7.55;6.85;;;;;;;23.38;63.57;100431.88;5036578;28;20041;-74
2022/08/15 11:54:10;;;;;;;8.10;7.20;;;;;;;23.37;62.90;100431.00;5043442;28;20144;-75
2022/08/15 11:57:03;;;;;;;7.32;6.72;;;;;;;23.38;63.21;100438.03;5037047;28;20667;-75